30 settembre 2022

Tempo Codice Tempo metereologico Temp. Vista Base nuvolosa Vento METAR/SPECI
10:30
V
12 °C 10 km+ - 240° 240° 3 kt METAR LFBG 300830Z AUTO 24003KT 200V280 CAVOK 12/10 Q1014 NOSIG
10:00
V
11 °C 10 km+ - Var Var 1 kt METAR LFBG 300800Z AUTO VRB01KT CAVOK 11/10 Q1014 TEMPO 0500 FG VV///
09:30
V
10 °C 10 km+ - Var 000° 0 kt METAR LFBG 300730Z AUTO 00000KT CAVOK 10/09 Q1013 TEMPO 0500 FG VV///
09:00
L
8 °C 450 m - Var 000° 0 kt METAR LFBG 300700Z AUTO 00000KT 0600 0450 R23/0600U FG NSC 08/08 Q1013 TEMPO VV///
08:30
L
8 °C 250 m - Var 000° 0 kt METAR LFBG 300630Z AUTO 00000KT 0550 0250 R23/M0200U FG NSC 08/07 Q1013 TEMPO VV///
08:00
L
8 °C 800 m - Var 000° 0 kt METAR LFBG 300600Z AUTO 00000KT 1800 0800 R23/1000U BCFG NSC 08/07 Q1012 TEMPO 0500 FG VV///
07:30
V
8 °C 8 km - Var 000° 0 kt METAR LFBG 300530Z AUTO 00000KT 8000 NSC 08/07 Q1012 TEMPO 0500 FG VV///
07:00
V
9 °C 10 km+ - Var 000° 0 kt METAR LFBG 300500Z AUTO 00000KT CAVOK 09/08 Q1012 TEMPO 0500 FG VV///
06:30
V
9 °C 10 km+ - 350° 350° 4 kt METAR LFBG 300430Z AUTO 35004KT CAVOK 09/08 Q1011 TEMPO 0500 FG VV///
06:00
V
9 °C 10 km+ - 350° 350° 5 kt METAR LFBG 300400Z AUTO 35005KT CAVOK 09/09 Q1011
05:30
L
9 °C 1 km - Var 000° 0 kt METAR LFBG 300330Z AUTO 00000KT 6000 1000 R23/1200U NSC 09/08 Q1010
05:00
L
8 °C 900 m - Var 000° 0 kt METAR LFBG 300300Z AUTO 00000KT 7000 0900 R23/1900U BCFG NSC 08/08 Q1010
04:30
V
9 °C 9 km - 310° 310° 4 kt METAR LFBG 300230Z AUTO 31004KT 9000 R23/0800U NSC 09/08 Q1010
04:00
L
9 °C 600 m - Var 000° 0 kt METAR LFBG 300200Z AUTO 00000KT 1600 0600 R23/0550D BCFG NSC 09/08 Q1010
03:30
M
10 °C 7 km - 340° 340° 2 kt METAR LFBG 300130Z AUTO 34002KT 7000 R23/1300U NSC 10/09 Q1009
03:00
L
10 °C 450 m - 320° 320° 2 kt METAR LFBG 300100Z AUTO 32002KT 9999 0450 R23/0550D BCFG NSC 10/09 Q1009
02:30
V
11 °C 10 km+ - 320° 320° 4 kt METAR LFBG 300030Z AUTO 32004KT CAVOK 11/10 Q1009
02:00
V
11 °C 10 km+ - 310° 310° 1 kt METAR LFBG 300000Z AUTO 31001KT CAVOK 11/11 Q1009
01:30
V
11 °C 10 km+ - Var 000° 0 kt METAR LFBG 292330Z AUTO 00000KT CAVOK 11/11 Q1009
01:00
V
11 °C 10 km+ - Var 000° 0 kt METAR LFBG 292300Z AUTO 00000KT CAVOK 11/11 Q1009
00:30
V
11 °C 10 km+ 7.400 ft Var 000° 0 kt METAR LFBG 292230Z AUTO 00000KT 9999 FEW001 BKN074 11/11 Q1009
00:00
L
11 °C 750 m - Var 000° 0 kt METAR LFBG 292200Z AUTO 00000KT 9999 0750 R23/1100D BCFG NSC 11/10 Q1009

29 settembre 2022

Tempo Codice Tempo metereologico Temp. Vista Base nuvolosa Vento METAR/SPECI
23:30
V
12 °C 10 km+ - 070° 070° 3 kt METAR LFBG 292130Z AUTO 07003KT 9999 //////TCU 12/11 Q1008
23:00
V
12 °C 10 km+ 6.600 ft 080° 080° 3 kt METAR LFBG 292100Z AUTO 08003KT 9999 FEW019/// OVC066/// ///TCU 12/11 Q1008 TEMPO SHRA BECMG SCT040
22:30
M
13 °C 5 km 6.000 ft 030° 030° 7 kt METAR LFBG 292030Z AUTO 03007KT 5000 RA BR FEW018/// SCT048/// OVC060/// ///TCU 13/11 Q1008 BECMG NSW SCT040
22:00
V
14 °C 10 km+ 5.800 ft 350° 350° 5 kt METAR LFBG 292000Z AUTO 35005KT 9999 -RADZ FEW020/// SCT046/// BKN058/// ///TCU 14/10 Q1007
21:30
V
14 °C 10 km+ 6.600 ft 280° 280° 2 kt METAR LFBG 291930Z AUTO 28002KT 9999 -RA FEW042/// OVC066/// //////CB 14/10 Q1007 TEMPO 4000 SHRA
21:00
V
14 °C 10 km+ - 300° 300° 3 kt METAR LFBG 291900Z AUTO 30003KT 9999 ///CB 14/10 Q1006 TEMPO 4000 SHRA
20:30
V
14 °C 10 km+ 8.800 ft 280° 280° 5 kt METAR LFBG 291830Z AUTO 28005KT 9999 FEW044/// SCT066/// OVC088/// //////TCU 14/10 Q1006 TEMPO 4000 SHRA SCT040CB
20:00
V
14 °C 10 km+ 8.600 ft 300° 300° 5 kt METAR LFBG 291800Z AUTO 30005KT 9999 SCT033/// BKN086/// //////CB 14/10 Q1005 TEMPO 4000 SHRA
19:30
V
15 °C 10 km+ 7.800 ft 240° 240° 3 kt METAR LFBG 291730Z AUTO 24003KT 9999 FEW022/// SCT068/// OVC078/// //////CB 15/09 Q1005 TEMPO 4000 SHRA
19:00
V
16 °C 10 km+ 5.600 ft 300° 300° 8 kt METAR LFBG 291700Z AUTO 30008KT 280V360 9999 RA FEW036/// SCT047/// BKN056/// ///CB 16/09 Q1005 TEMPO 4000 SHRA
18:30
V
17 °C 10 km+ - 300° 300° 7 kt METAR LFBG 291630Z AUTO 30007KT CAVOK 17/07 Q1004 TEMPO 4000 SHRA SCT040CB
18:00
V
17 °C 10 km+ - 320° 320° 7 kt METAR LFBG 291600Z AUTO 32007KT 280V350 9999 FEW048 SCT072 17/06 Q1004 TEMPO 4000 SHRA SCT040CB
17:30
V
18 °C 10 km+ - 350° 350° 6 kt METAR LFBG 291530Z AUTO 35006KT 300V030 9999 FEW046 18/07 Q1004 TEMPO 4000 SHRA SCT040CB
17:00
V
18 °C 10 km+ - 300° 300° 6 kt METAR LFBG 291500Z AUTO 30006KT 250V360 9999 FEW048 18/06 Q1004 TEMPO 4000 SHRA SCT040CB
16:30
V
18 °C 10 km+ - 330° 330° 7 kt METAR LFBG 291430Z AUTO 33007KT 290V360 9999 FEW044 SCT240 18/05 Q1004 TEMPO 4000 SHRA SCT040TCU
16:00
V
18 °C 10 km+ - 340° 340° 7 kt METAR LFBG 291400Z AUTO 34007KT 300V360 9999 FEW043 SCT240 18/06 Q1003 TEMPO 4000 SHRA SCT040TCU
15:30
V
17 °C 10 km+ 23.000 ft 320° 320° 6 kt METAR LFBG 291330Z AUTO 32006KT 290V010 9999 FEW045 BKN230 17/06 Q1004 TEMPO 4000 SHRA SCT040TCU
15:00
V
17 °C 10 km+ 4.100 ft 290° 290° 7 kt METAR LFBG 291300Z AUTO 29007KT 260V340 9999 BKN041 BKN049 BKN200 17/07 Q1004 NOSIG
14:30
V
17 °C 10 km+ 20.000 ft 320° 320° 6 kt METAR LFBG 291230Z AUTO 32006KT 290V350 9999 FEW036 OVC200 17/07 Q1004 NOSIG
14:00
V
17 °C 10 km+ 5.400 ft 320° 320° 5 kt METAR LFBG 291200Z AUTO 32005KT 9999 SCT035 BKN054 BKN200 17/08 Q1004 NOSIG
13:30
V
17 °C 10 km+ 5.000 ft 320° 320° 5 kt METAR LFBG 291130Z AUTO 32005KT 270V040 9999 SCT036 BKN050 OVC190 17/08 Q1004 NOSIG
13:00
V
16 °C 10 km+ 3.300 ft Var Var 3 kt METAR LFBG 291100Z AUTO VRB03KT 9999 BKN033 BKN041 BKN180 16/08 Q1004 NOSIG
12:30
V
16 °C 10 km+ 3.100 ft 310° 310° 3 kt METAR LFBG 291030Z AUTO 31003KT 270V350 9999 BKN031 BKN040 OVC170 16/08 Q1004 NOSIG
12:00
V
16 °C 10 km+ 4.100 ft Var Var 2 kt METAR LFBG 291000Z AUTO VRB02KT 9999 SCT031 BKN041 BKN180 16/08 Q1004 NOSIG
11:30
V
17 °C 10 km+ - Var Var 3 kt METAR LFBG 290930Z AUTO VRB03KT CAVOK 17/09 Q1004 NOSIG
11:00
V
15 °C 10 km+ - Var Var 1 kt METAR LFBG 290900Z AUTO VRB01KT CAVOK 15/08 Q1004 NOSIG
10:30
V
14 °C 10 km+ 14.000 ft Var Var 1 kt METAR LFBG 290830Z AUTO VRB01KT 9999 FEW028 BKN140 OVC160 14/10 Q1004 NOSIG
10:00
M
13 °C 10 km+ 2.500 ft 280° 280° 2 kt METAR LFBG 290800Z AUTO 28002KT 9999 BKN025 OVC150 13/11 Q1004 NOSIG
09:30
V
12 °C 10 km+ - 250° 250° 2 kt METAR LFBG 290730Z AUTO 25002KT CAVOK 12/11 Q1003 NOSIG
09:00
V
11 °C 10 km+ 14.000 ft 260° 260° 2 kt METAR LFBG 290700Z AUTO 26002KT 9999 FEW026 BKN140 OVC170 11/10 Q1003 NOSIG
08:30
V
11 °C 10 km+ 18.000 ft 260° 260° 1 kt METAR LFBG 290630Z AUTO 26001KT 9999 FEW026 SCT052 OVC180 11/10 Q1003 NOSIG
08:00
V
11 °C 10 km+ 13.000 ft 260° 260° 2 kt METAR LFBG 290600Z AUTO 26002KT 9999 FEW049 SCT068 BKN130 11/10 Q1003 NOSIG
07:30
V
12 °C 10 km+ - 270° 270° 2 kt METAR LFBG 290530Z AUTO 27002KT CAVOK 12/10 Q1003 NOSIG
07:00
V
12 °C 10 km+ - 270° 270° 1 kt METAR LFBG 290500Z AUTO 27001KT CAVOK 12/10 Q1003 NOSIG
06:30
V
12 °C 10 km+ - Var 000° 0 kt METAR LFBG 290430Z AUTO 00000KT 9999 //////TCU 12/10 Q1003
06:00
V
12 °C 10 km+ - 240° 240° 2 kt METAR LFBG 290400Z AUTO 24002KT CAVOK 12/10 Q1003
05:30
V
12 °C 10 km+ - 240° 240° 2 kt METAR LFBG 290330Z AUTO 24002KT CAVOK 12/10 Q1003
05:00
V
12 °C 10 km+ - 230° 230° 1 kt METAR LFBG 290300Z AUTO 23001KT CAVOK 12/10 Q1003
04:30
V
12 °C 10 km+ 14.000 ft 270° 270° 2 kt METAR LFBG 290230Z AUTO 27002KT 9999 FEW027 OVC140 12/10 Q1004
04:00
V
12 °C 10 km+ 8.400 ft 260° 260° 2 kt METAR LFBG 290200Z AUTO 26002KT 9999 FEW027 BKN084 OVC150 12/10 Q1004
03:30
V
12 °C 10 km+ 14.000 ft 260° 260° 2 kt METAR LFBG 290130Z AUTO 26002KT 9999 FEW029 SCT084 BKN140 12/10 Q1004
03:00
V
12 °C 10 km+ 4.700 ft 240° 240° 3 kt METAR LFBG 290100Z AUTO 24003KT 9999 FEW029 SCT039 BKN047 12/10 Q1004
02:30
V
12 °C 10 km+ 3.000 ft 230° 230° 2 kt METAR LFBG 290030Z AUTO 23002KT 9999 BKN030 BKN048 BKN082 12/10 Q1004
02:00
M
13 °C 10 km+ 2.700 ft 250° 250° 3 kt METAR LFBG 290000Z AUTO 25003KT 9999 BKN027 BKN047 OVC078 13/10 Q1005
01:30
V
13 °C 10 km+ 5.600 ft 250° 250° 4 kt METAR LFBG 282330Z AUTO 25004KT 9999 SCT032 BKN056 OVC080 13/10 Q1005
01:00
V
13 °C 10 km+ 8.200 ft 250° 250° 4 kt METAR LFBG 282300Z AUTO 25004KT 9999 FEW041 OVC082 13/10 Q1005
00:30
V
12 °C 10 km+ - 250° 250° 5 kt METAR LFBG 282230Z AUTO 25005KT CAVOK 12/10 Q1005
00:00
V
12 °C 10 km+ - 250° 250° 4 kt METAR LFBG 282200Z AUTO 25004KT CAVOK 12/10 Q1005

28 settembre 2022

Tempo Codice Tempo metereologico Temp. Vista Base nuvolosa Vento METAR/SPECI
23:30
V
13 °C 10 km+ 25.000 ft 260° 260° 5 kt METAR LFBG 282130Z AUTO 26005KT 9999 FEW030 BKN250 13/10 Q1005
23:00
V
14 °C 10 km+ - 280° 280° 8 kt METAR LFBG 282100Z AUTO 28008KT CAVOK 14/10 Q1005
22:30
V
14 °C 10 km+ - 280° 280° 7 kt METAR LFBG 282030Z AUTO 28007KT 9999 FEW033 14/11 Q1005
22:00
M
14 °C 10 km+ 2.900 ft 280° 280° 7 kt METAR LFBG 282000Z AUTO 28007KT 9999 SCT023 BKN029 BKN120 14/11 Q1005
21:30
V
15 °C 10 km+ 6.600 ft 280° 280° 8 kt METAR LFBG 281930Z AUTO 28008KT 9999 SCT026 BKN066 BKN130 15/11 Q1005
21:00
V
15 °C 10 km+ 6.600 ft 280° 280° 10 kt METAR LFBG 281900Z AUTO 28010KT 9999 FEW023 OVC066 15/12 Q1005
20:30
M
16 °C 10 km+ 2.200 ft 270° 270° 10 kt METAR LFBG 281830Z AUTO 27010KT 9999 BKN022 BKN068 OVC078 16/12 Q1004
20:00
V
16 °C 10 km+ 6.000 ft 280° 280° 11 kt METAR LFBG 281800Z AUTO 28011KT 9999 FEW023 OVC060 16/12 Q1004
19:30
V
16 °C 10 km+ 7.800 ft 280° 280° 16 kt METAR LFBG 281730Z AUTO 28016KT 9999 FEW022 SCT068 BKN078 16/12 Q1004
19:00
V
17 °C 10 km+ 7.600 ft 280° 280° 17 kt METAR LFBG 281700Z AUTO 28017KT 9999 SCT025 BKN076 17/13 Q1004
18:30
M
18 °C 10 km+ 2.300 ft 270° 270° 18 kt METAR LFBG 281630Z AUTO 27018KT 9999 BKN023 OVC029 18/14 Q1003
18:00
M
18 °C 10 km+ 2.500 ft 260° 260° 17 kt METAR LFBG 281600Z AUTO 26017KT 9999 BKN025 BKN031 18/13 Q1003 TEMPO 28016G26KT 4500 -SHRA BKN020TCU
17:30
M
17 °C 10 km+ 1.800 ft 280° 280° 12 kt METAR LFBG 281530Z AUTO 28012KT 9999 BKN018/// BKN024/// BKN029/// //////CB 17/15 Q1003 TEMPO 28016G26KT 4500 -SHRA BECMG BKN025
17:00
M
18 °C 10 km+ 2.300 ft 250° 250° 14 kt METAR LFBG 281500Z AUTO 25014KT 9999 BKN023/// OVC031/// //////TCU 18/14 Q1004 TEMPO 28016G26KT 4500 -SHRA
16:30
M
18 °C 10 km+ 1.900 ft 270° 270° 17 kt METAR LFBG 281430Z AUTO 27017KT 9999 BKN019/// OVC024/// ///TCU 18/14 Q1004 TEMPO 4500 -SHRA
16:00
M
18 °C 10 km+ 1.500 ft 270° 270° 17 kt METAR LFBG 281400Z AUTO 27017KT 9999 BKN015 BKN020 BKN046 18/14 Q1004 TEMPO 28017G27KT 4500 -SHRA BKN020TCU
15:30
M
17 °C 10 km+ 1.600 ft 280° 280° 10 kt METAR LFBG 281330Z AUTO 28010KT 240V310 9999 R23/1300U SCT010/// BKN016/// BKN022/// ///CB 17/15 Q1004 TEMPO 28017G27KT 4500 -SHRA
15:00
M
18 °C 7 km 3.500 ft 290° 290° 17 kt METAR LFBG 281300Z AUTO 29017KT 7000 SCT024/// BKN035/// BKN062/// ///CB 18/14 Q1004 TEMPO 28017G27KT 3500 -SHRA
14:30
M
18 °C 7 km 7.000 ft 280° 280° 18 kt METAR LFBG 281230Z AUTO 28018KT 7000 FEW017/// BKN070/// BKN084/// ///TCU 18/14 Q1004 TEMPO 28017G27KT 3500 -SHRA
14:00
I
17 °C 3,6 km 2.600 ft 280° 280° 21 - 31 kt METAR LFBG 281200Z AUTO 28021G31KT 250V320 9999 3600 RA FEW018/// BKN026/// BKN048/// //////TCU 17/14 Q1005 TEMPO 3500 -SHRA
13:30
M
20 °C 10 km+ 2.300 ft 270° 270° 19 kt METAR LFBG 281130Z AUTO 27019KT 9999 BKN023/// BKN028/// BKN033/// ///TCU 20/14 Q1005 TEMPO 28017G27KT 3500 -SHRA
13:00
V
19 °C 10 km+ 3.000 ft 280° 280° 16 kt METAR LFBG 281100Z AUTO 28016KT 9999 SCT020/// BKN030/// BKN080/// ///TCU 19/14 Q1005 TEMPO 28017G27KT 3500 -SHRA
12:30
M
18 °C 10 km+ 2.300 ft 280° 280° 17 kt METAR LFBG 281030Z AUTO 28017KT 9999 SCT016 BKN023 BKN040 18/15 Q1005 TEMPO 28017G27KT 3500 -SHRA BKN015TCU
12:00
M
18 °C 10 km+ 1.500 ft 280° 280° 16 kt METAR LFBG 281000Z AUTO 28016KT 9999 BKN015/// BKN080/// ///CB 18/15 Q1005 TEMPO 28017G27KT 3500 -SHRA
11:30
M
16 °C 10 km+ 1.100 ft 280° 280° 15 kt METAR LFBG 280930Z AUTO 28015KT 9999 -RA BKN011/// BKN016/// BKN034/// //////CB 16/15 Q1005 TEMPO 28017G27KT 3500 -SHRA BKN015TCU
11:00
M
17 °C 10 km+ 1.300 ft 270° 270° 15 kt METAR LFBG 280900Z AUTO 27015KT 9999 RA OVC013/// //////TCU 17/15 Q1006 TEMPO 28017G27KT 3500 -SHRA BKN015TCU
Dati più vecchi

Noi e le terze parti seguiamo il tuo comportamento in internet sul nostro sito web con i cookie. Se continui, riteniamo che tu sia d'accordo con la nostra politica sui cookie. Per saperne di più